sensor_id;sensor_type;location;lat;lon;timestamp;P1;durP1;ratioP1;P2;durP2;ratioP2
66609;SDS011;53468;48.276;14.416;2023-06-26T00:03:08;9.95;;;6.45;;
66609;SDS011;53468;48.276;14.416;2023-06-26T00:08:15;8.93;;;6.93;;
66609;SDS011;53468;48.276;14.416;2023-06-26T00:13:18;7.72;;;5.53;;
66609;SDS011;53468;48.276;14.416;2023-06-26T00:23:56;8.77;;;5.60;;
66609;SDS011;53468;48.276;14.416;2023-06-26T00:28:59;7.60;;;5.63;;
66609;SDS011;53468;48.276;14.416;2023-06-26T00:34:01;8.63;;;5.93;;
66609;SDS011;53468;48.276;14.416;2023-06-26T00:39:06;8.30;;;5.78;;
66609;SDS011;53468;48.276;14.416;2023-06-26T00:44:09;7.82;;;6.13;;
66609;SDS011;53468;48.276;14.416;2023-06-26T00:49:12;12.52;;;6.72;;
66609;SDS011;53468;48.276;14.416;2023-06-26T00:54:17;15.60;;;6.75;;
66609;SDS011;53468;48.276;14.416;2023-06-26T00:59:22;9.50;;;6.38;;
66609;SDS011;53468;48.276;14.416;2023-06-26T01:04:26;9.90;;;6.97;;
66609;SDS011;53468;48.276;14.416;2023-06-26T01:09:34;9.85;;;6.28;;
66609;SDS011;53468;48.276;14.416;2023-06-26T01:14:38;9.23;;;5.82;;
66609;SDS011;53468;48.276;14.416;2023-06-26T01:19:41;9.52;;;6.30;;
66609;SDS011;53468;48.276;14.416;2023-06-26T01:24:50;8.85;;;6.25;;
66609;SDS011;53468;48.276;14.416;2023-06-26T01:30:06;11.82;;;6.53;;
66609;SDS011;53468;48.276;14.416;2023-06-26T01:35:11;8.10;;;6.00;;
66609;SDS011;53468;48.276;14.416;2023-06-26T01:40:15;9.32;;;5.95;;
66609;SDS011;53468;48.276;14.416;2023-06-26T01:45:24;11.02;;;6.50;;
66609;SDS011;53468;48.276;14.416;2023-06-26T01:50:31;8.23;;;6.20;;
66609;SDS011;53468;48.276;14.416;2023-06-26T01:55:38;10.25;;;6.78;;
66609;SDS011;53468;48.276;14.416;2023-06-26T02:00:49;9.10;;;6.90;;
66609;SDS011;53468;48.276;14.416;2023-06-26T02:05:52;9.52;;;6.38;;
66609;SDS011;53468;48.276;14.416;2023-06-26T02:10:57;11.35;;;6.63;;
66609;SDS011;53468;48.276;14.416;2023-06-26T02:16:01;9.20;;;6.75;;
66609;SDS011;53468;48.276;14.416;2023-06-26T02:21:07;8.10;;;6.13;;
66609;SDS011;53468;48.276;14.416;2023-06-26T02:26:11;10.45;;;6.95;;
66609;SDS011;53468;48.276;14.416;2023-06-26T02:31:16;8.10;;;6.18;;
66609;SDS011;53468;48.276;14.416;2023-06-26T02:36:40;8.55;;;6.80;;
66609;SDS011;53468;48.276;14.416;2023-06-26T02:41:44;12.07;;;7.15;;
66609;SDS011;53468;48.276;14.416;2023-06-26T02:47:02;9.27;;;6.65;;
66609;SDS011;53468;48.276;14.416;2023-06-26T02:52:14;8.63;;;6.40;;
66609;SDS011;53468;48.276;14.416;2023-06-26T02:57:19;8.70;;;6.28;;
66609;SDS011;53468;48.276;14.416;2023-06-26T03:02:29;8.45;;;6.70;;
66609;SDS011;53468;48.276;14.416;2023-06-26T03:07:46;12.55;;;7.07;;
66609;SDS011;53468;48.276;14.416;2023-06-26T03:12:49;9.52;;;6.60;;
66609;SDS011;53468;48.276;14.416;2023-06-26T03:18:05;9.73;;;6.97;;
66609;SDS011;53468;48.276;14.416;2023-06-26T03:23:11;8.80;;;6.85;;
66609;SDS011;53468;48.276;14.416;2023-06-26T03:28:20;10.98;;;6.90;;
66609;SDS011;53468;48.276;14.416;2023-06-26T03:39:13;10.85;;;6.25;;
66609;SDS011;53468;48.276;14.416;2023-06-26T03:44:18;9.82;;;6.93;;
66609;SDS011;53468;48.276;14.416;2023-06-26T03:49:38;11.32;;;7.03;;
66609;SDS011;53468;48.276;14.416;2023-06-26T03:54:46;9.48;;;6.95;;
66609;SDS011;53468;48.276;14.416;2023-06-26T04:00:00;13.38;;;7.38;;
66609;SDS011;53468;48.276;14.416;2023-06-26T04:05:20;11.05;;;7.05;;
66609;SDS011;53468;48.276;14.416;2023-06-26T04:10:34;9.70;;;6.72;;
66609;SDS011;53468;48.276;14.416;2023-06-26T04:15:46;11.07;;;7.25;;
66609;SDS011;53468;48.276;14.416;2023-06-26T04:21:14;9.02;;;6.38;;
66609;SDS011;53468;48.276;14.416;2023-06-26T04:26:20;9.05;;;6.50;;
66609;SDS011;53468;48.276;14.416;2023-06-26T04:31:25;10.15;;;7.20;;
66609;SDS011;53468;48.276;14.416;2023-06-26T04:36:34;9.68;;;6.70;;
66609;SDS011;53468;48.276;14.416;2023-06-26T04:41:51;9.60;;;7.00;;
66609;SDS011;53468;48.276;14.416;2023-06-26T04:47:08;11.07;;;6.90;;
66609;SDS011;53468;48.276;14.416;2023-06-26T04:52:16;10.18;;;6.82;;
66609;SDS011;53468;48.276;14.416;2023-06-26T04:57:19;15.70;;;9.10;;
66609;SDS011;53468;48.276;14.416;2023-06-26T05:02:24;14.73;;;9.98;;
66609;SDS011;53468;48.276;14.416;2023-06-26T05:07:33;15.93;;;10.00;;
66609;SDS011;53468;48.276;14.416;2023-06-26T05:12:37;18.27;;;10.10;;
66609;SDS011;53468;48.276;14.416;2023-06-26T05:17:40;16.40;;;10.55;;
66609;SDS011;53468;48.276;14.416;2023-06-26T05:22:45;16.80;;;10.70;;
66609;SDS011;53468;48.276;14.416;2023-06-26T05:27:48;17.73;;;11.88;;
66609;SDS011;53468;48.276;14.416;2023-06-26T05:32:51;18.55;;;12.38;;
66609;SDS011;53468;48.276;14.416;2023-06-26T05:37:55;32.17;;;13.45;;
66609;SDS011;53468;48.276;14.416;2023-06-26T05:42:58;15.65;;;9.75;;
66609;SDS011;53468;48.276;14.416;2023-06-26T05:48:01;14.02;;;9.60;;
66609;SDS011;53468;48.276;14.416;2023-06-26T05:53:05;12.82;;;8.65;;
66609;SDS011;53468;48.276;14.416;2023-06-26T05:58:09;13.50;;;10.02;;
66609;SDS011;53468;48.276;14.416;2023-06-26T06:03:12;15.70;;;9.88;;
66609;SDS011;53468;48.276;14.416;2023-06-26T06:08:15;18.17;;;11.68;;
66609;SDS011;53468;48.276;14.416;2023-06-26T06:13:17;14.02;;;9.82;;
66609;SDS011;53468;48.276;14.416;2023-06-26T06:18:19;14.05;;;9.77;;
66609;SDS011;53468;48.276;14.416;2023-06-26T06:23:23;14.95;;;9.60;;
66609;SDS011;53468;48.276;14.416;2023-06-26T06:28:25;14.95;;;9.32;;
66609;SDS011;53468;48.276;14.416;2023-06-26T06:33:27;12.25;;;8.82;;
66609;SDS011;53468;48.276;14.416;2023-06-26T06:38:30;12.45;;;9.35;;
66609;SDS011;53468;48.276;14.416;2023-06-26T06:43:32;12.38;;;8.60;;
66609;SDS011;53468;48.276;14.416;2023-06-26T06:48:34;13.73;;;9.63;;
66609;SDS011;53468;48.276;14.416;2023-06-26T06:53:38;13.60;;;9.13;;
66609;SDS011;53468;48.276;14.416;2023-06-26T06:58:40;18.05;;;9.02;;
66609;SDS011;53468;48.276;14.416;2023-06-26T07:03:42;15.75;;;9.00;;
66609;SDS011;53468;48.276;14.416;2023-06-26T07:08:45;11.40;;;8.18;;
66609;SDS011;53468;48.276;14.416;2023-06-26T07:13:47;15.40;;;8.02;;
66609;SDS011;53468;48.276;14.416;2023-06-26T07:18:49;13.15;;;9.32;;
66609;SDS011;53468;48.276;14.416;2023-06-26T07:23:53;13.05;;;8.25;;
66609;SDS011;53468;48.276;14.416;2023-06-26T07:28:55;14.23;;;8.70;;
66609;SDS011;53468;48.276;14.416;2023-06-26T07:33:57;11.98;;;8.68;;
66609;SDS011;53468;48.276;14.416;2023-06-26T07:39:03;19.15;;;8.02;;
66609;SDS011;53468;48.276;14.416;2023-06-26T07:44:06;10.88;;;6.97;;
66609;SDS011;53468;48.276;14.416;2023-06-26T07:49:08;12.18;;;7.97;;
66609;SDS011;53468;48.276;14.416;2023-06-26T07:54:11;11.23;;;7.28;;
66609;SDS011;53468;48.276;14.416;2023-06-26T07:59:13;11.82;;;7.78;;
66609;SDS011;53468;48.276;14.416;2023-06-26T08:04:17;10.50;;;7.22;;
66609;SDS011;53468;48.276;14.416;2023-06-26T08:09:22;11.15;;;7.90;;
66609;SDS011;53468;48.276;14.416;2023-06-26T08:14:25;10.15;;;7.22;;
66609;SDS011;53468;48.276;14.416;2023-06-26T08:19:27;8.60;;;7.03;;
66609;SDS011;53468;48.276;14.416;2023-06-26T08:24:31;8.80;;;6.53;;
66609;SDS011;53468;48.276;14.416;2023-06-26T08:29:33;8.13;;;6.22;;
66609;SDS011;53468;48.276;14.416;2023-06-26T08:34:35;8.18;;;6.68;;
66609;SDS011;53468;48.276;14.416;2023-06-26T08:39:39;10.88;;;7.18;;
66609;SDS011;53468;48.276;14.416;2023-06-26T08:44:41;10.43;;;7.05;;
66609;SDS011;53468;48.276;14.416;2023-06-26T08:49:45;12.00;;;7.75;;
66609;SDS011;53468;48.276;14.416;2023-06-26T08:54:54;11.70;;;7.95;;
66609;SDS011;53468;48.276;14.416;2023-06-26T08:59:59;9.85;;;7.53;;
66609;SDS011;53468;48.276;14.416;2023-06-26T09:05:03;11.43;;;7.60;;
66609;SDS011;53468;48.276;14.416;2023-06-26T09:10:08;12.13;;;7.78;;
66609;SDS011;53468;48.276;14.416;2023-06-26T09:15:10;10.10;;;8.07;;
66609;SDS011;53468;48.276;14.416;2023-06-26T09:20:17;9.68;;;7.55;;
66609;SDS011;53468;48.276;14.416;2023-06-26T09:25:21;10.40;;;7.43;;
66609;SDS011;53468;48.276;14.416;2023-06-26T09:30:24;9.70;;;7.30;;
66609;SDS011;53468;48.276;14.416;2023-06-26T09:35:26;13.93;;;7.15;;
66609;SDS011;53468;48.276;14.416;2023-06-26T09:40:30;7.97;;;6.75;;
66609;SDS011;53468;48.276;14.416;2023-06-26T09:45:34;10.70;;;6.93;;
66609;SDS011;53468;48.276;14.416;2023-06-26T09:50:37;11.48;;;7.07;;
66609;SDS011;53468;48.276;14.416;2023-06-26T09:55:44;11.75;;;7.50;;
66609;SDS011;53468;48.276;14.416;2023-06-26T10:00:47;9.50;;;8.40;;
66609;SDS011;53468;48.276;14.416;2023-06-26T10:05:49;12.95;;;8.02;;
66609;SDS011;53468;48.276;14.416;2023-06-26T10:10:53;12.18;;;8.60;;
66609;SDS011;53468;48.276;14.416;2023-06-26T10:15:56;11.55;;;8.77;;
66609;SDS011;53468;48.276;14.416;2023-06-26T10:21:00;13.70;;;8.77;;
66609;SDS011;53468;48.276;14.416;2023-06-26T10:26:06;9.15;;;6.97;;
66609;SDS011;53468;48.276;14.416;2023-06-26T10:31:09;8.25;;;6.65;;
66609;SDS011;53468;48.276;14.416;2023-06-26T10:36:13;12.80;;;7.40;;
66609;SDS011;53468;48.276;14.416;2023-06-26T10:41:17;11.88;;;6.45;;
66609;SDS011;53468;48.276;14.416;2023-06-26T10:46:21;8.52;;;6.65;;
66609;SDS011;53468;48.276;14.416;2023-06-26T10:51:23;7.90;;;6.38;;
66609;SDS011;53468;48.276;14.416;2023-06-26T10:56:43;6.97;;;5.82;;
66609;SDS011;53468;48.276;14.416;2023-06-26T11:01:47;6.45;;;5.35;;
66609;SDS011;53468;48.276;14.416;2023-06-26T11:06:59;8.50;;;6.10;;
66609;SDS011;53468;48.276;14.416;2023-06-26T11:12:17;6.32;;;5.18;;
66609;SDS011;53468;48.276;14.416;2023-06-26T11:17:36;7.18;;;5.85;;
66609;SDS011;53468;48.276;14.416;2023-06-26T11:22:38;8.85;;;4.90;;
66609;SDS011;53468;48.276;14.416;2023-06-26T11:27:43;8.80;;;5.43;;
66609;SDS011;53468;48.276;14.416;2023-06-26T11:32:46;6.40;;;5.50;;
66609;SDS011;53468;48.276;14.416;2023-06-26T11:37:48;7.18;;;4.25;;
66609;SDS011;53468;48.276;14.416;2023-06-26T11:42:53;7.95;;;4.32;;
66609;SDS011;53468;48.276;14.416;2023-06-26T11:47:55;5.93;;;4.40;;
66609;SDS011;53468;48.276;14.416;2023-06-26T11:52:58;8.23;;;4.93;;
66609;SDS011;53468;48.276;14.416;2023-06-26T11:58:03;6.65;;;4.07;;
66609;SDS011;53468;48.276;14.416;2023-06-26T12:03:05;5.25;;;3.67;;
66609;SDS011;53468;48.276;14.416;2023-06-26T12:08:07;5.80;;;4.45;;
66609;SDS011;53468;48.276;14.416;2023-06-26T12:13:11;5.45;;;4.22;;
66609;SDS011;53468;48.276;14.416;2023-06-26T12:18:13;9.85;;;4.72;;
66609;SDS011;53468;48.276;14.416;2023-06-26T12:23:15;6.53;;;4.00;;
66609;SDS011;53468;48.276;14.416;2023-06-26T12:28:18;8.73;;;4.50;;
66609;SDS011;53468;48.276;14.416;2023-06-26T12:33:20;5.13;;;3.95;;
66609;SDS011;53468;48.276;14.416;2023-06-26T12:38:22;4.45;;;3.72;;
66609;SDS011;53468;48.276;14.416;2023-06-26T12:43:26;4.88;;;3.53;;
66609;SDS011;53468;48.276;14.416;2023-06-26T12:48:37;7.55;;;4.40;;
66609;SDS011;53468;48.276;14.416;2023-06-26T12:53:43;5.18;;;3.50;;
66609;SDS011;53468;48.276;14.416;2023-06-26T12:58:47;5.50;;;4.20;;
66609;SDS011;53468;48.276;14.416;2023-06-26T13:03:49;6.60;;;4.22;;
66609;SDS011;53468;48.276;14.416;2023-06-26T13:08:51;5.20;;;4.22;;
66609;SDS011;53468;48.276;14.416;2023-06-26T13:13:55;6.72;;;4.65;;
66609;SDS011;53468;48.276;14.416;2023-06-26T13:18:57;6.18;;;4.15;;
66609;SDS011;53468;48.276;14.416;2023-06-26T13:24:00;5.43;;;4.13;;
66609;SDS011;53468;48.276;14.416;2023-06-26T13:29:04;5.20;;;4.03;;
66609;SDS011;53468;48.276;14.416;2023-06-26T13:34:07;6.95;;;4.60;;
66609;SDS011;53468;48.276;14.416;2023-06-26T13:39:09;5.78;;;4.80;;
66609;SDS011;53468;48.276;14.416;2023-06-26T13:44:12;5.90;;;4.88;;
66609;SDS011;53468;48.276;14.416;2023-06-26T13:49:14;7.90;;;5.45;;
66609;SDS011;53468;48.276;14.416;2023-06-26T13:54:16;5.10;;;4.50;;
66609;SDS011;53468;48.276;14.416;2023-06-26T13:59:19;6.25;;;4.60;;
66609;SDS011;53468;48.276;14.416;2023-06-26T14:04:21;5.78;;;4.90;;
66609;SDS011;53468;48.276;14.416;2023-06-26T14:09:23;5.57;;;4.75;;
66609;SDS011;53468;48.276;14.416;2023-06-26T14:14:27;8.23;;;5.65;;
66609;SDS011;53468;48.276;14.416;2023-06-26T14:19:29;7.72;;;5.68;;
66609;SDS011;53468;48.276;14.416;2023-06-26T14:24:31;6.32;;;4.97;;
66609;SDS011;53468;48.276;14.416;2023-06-26T14:29:35;5.95;;;4.97;;
66609;SDS011;53468;48.276;14.416;2023-06-26T14:34:37;7.63;;;4.78;;
66609;SDS011;53468;48.276;14.416;2023-06-26T14:39:40;5.78;;;5.13;;
66609;SDS011;53468;48.276;14.416;2023-06-26T14:44:44;13.15;;;5.40;;
66609;SDS011;53468;48.276;14.416;2023-06-26T14:49:47;5.47;;;4.90;;
66609;SDS011;53468;48.276;14.416;2023-06-26T14:54:48;6.00;;;4.47;;
66609;SDS011;53468;48.276;14.416;2023-06-26T14:59:52;7.78;;;4.68;;
66609;SDS011;53468;48.276;14.416;2023-06-26T15:04:54;5.60;;;3.97;;
66609;SDS011;53468;48.276;14.416;2023-06-26T15:09:56;5.88;;;4.45;;
66609;SDS011;53468;48.276;14.416;2023-06-26T15:15:00;8.02;;;4.38;;
66609;SDS011;53468;48.276;14.416;2023-06-26T15:20:02;6.88;;;4.55;;
66609;SDS011;53468;48.276;14.416;2023-06-26T15:25:05;6.13;;;5.53;;
66609;SDS011;53468;48.276;14.416;2023-06-26T15:30:10;5.82;;;4.55;;
66609;SDS011;53468;48.276;14.416;2023-06-26T15:35:13;6.13;;;4.83;;
66609;SDS011;53468;48.276;14.416;2023-06-26T15:40:15;6.80;;;5.40;;
66609;SDS011;53468;48.276;14.416;2023-06-26T15:45:18;8.80;;;4.25;;
66609;SDS011;53468;48.276;14.416;2023-06-26T15:50:23;11.40;;;5.00;;
66609;SDS011;53468;48.276;14.416;2023-06-26T15:55:24;7.00;;;5.18;;
66609;SDS011;53468;48.276;14.416;2023-06-26T16:00:28;5.07;;;4.07;;
66609;SDS011;53468;48.276;14.416;2023-06-26T16:05:30;9.77;;;5.22;;
66609;SDS011;53468;48.276;14.416;2023-06-26T16:10:32;6.03;;;4.75;;
66609;SDS011;53468;48.276;14.416;2023-06-26T16:15:35;6.40;;;4.47;;
66609;SDS011;53468;48.276;14.416;2023-06-26T16:20:38;6.78;;;4.40;;
66609;SDS011;53468;48.276;14.416;2023-06-26T16:25:39;9.85;;;5.30;;
66609;SDS011;53468;48.276;14.416;2023-06-26T16:30:43;11.23;;;4.60;;
66609;SDS011;53468;48.276;14.416;2023-06-26T16:35:46;9.38;;;5.00;;
66609;SDS011;53468;48.276;14.416;2023-06-26T16:40:48;6.80;;;4.80;;
66609;SDS011;53468;48.276;14.416;2023-06-26T16:45:51;6.18;;;5.25;;
66609;SDS011;53468;48.276;14.416;2023-06-26T16:50:53;5.78;;;4.75;;
66609;SDS011;53468;48.276;14.416;2023-06-26T16:55:55;6.20;;;4.00;;
66609;SDS011;53468;48.276;14.416;2023-06-26T17:00:59;6.97;;;5.13;;
66609;SDS011;53468;48.276;14.416;2023-06-26T17:06:01;5.95;;;4.60;;
66609;SDS011;53468;48.276;14.416;2023-06-26T17:11:07;6.60;;;4.70;;
66609;SDS011;53468;48.276;14.416;2023-06-26T17:16:11;7.38;;;4.72;;
66609;SDS011;53468;48.276;14.416;2023-06-26T17:21:13;6.10;;;4.78;;
66609;SDS011;53468;48.276;14.416;2023-06-26T17:26:15;7.55;;;5.13;;
66609;SDS011;53468;48.276;14.416;2023-06-26T17:31:21;7.15;;;4.63;;
66609;SDS011;53468;48.276;14.416;2023-06-26T17:36:23;9.15;;;5.30;;
66609;SDS011;53468;48.276;14.416;2023-06-26T17:41:25;8.13;;;4.78;;
66609;SDS011;53468;48.276;14.416;2023-06-26T17:46:28;7.13;;;4.65;;
66609;SDS011;53468;48.276;14.416;2023-06-26T17:51:31;7.28;;;5.15;;
66609;SDS011;53468;48.276;14.416;2023-06-26T17:56:33;5.45;;;4.90;;
66609;SDS011;53468;48.276;14.416;2023-06-26T18:01:36;7.10;;;4.90;;
66609;SDS011;53468;48.276;14.416;2023-06-26T18:06:38;8.02;;;5.35;;
66609;SDS011;53468;48.276;14.416;2023-06-26T18:11:41;8.38;;;5.68;;
66609;SDS011;53468;48.276;14.416;2023-06-26T18:16:45;8.00;;;6.13;;
66609;SDS011;53468;48.276;14.416;2023-06-26T18:21:46;6.78;;;5.75;;
66609;SDS011;53468;48.276;14.416;2023-06-26T18:26:49;6.80;;;5.20;;
66609;SDS011;53468;48.276;14.416;2023-06-26T18:31:52;6.93;;;5.75;;
66609;SDS011;53468;48.276;14.416;2023-06-26T18:36:54;7.72;;;5.57;;
66609;SDS011;53468;48.276;14.416;2023-06-26T18:41:58;7.43;;;5.50;;
66609;SDS011;53468;48.276;14.416;2023-06-26T18:47:03;11.00;;;6.47;;
66609;SDS011;53468;48.276;14.416;2023-06-26T18:52:06;10.95;;;6.32;;
66609;SDS011;53468;48.276;14.416;2023-06-26T18:57:09;9.65;;;6.20;;
66609;SDS011;53468;48.276;14.416;2023-06-26T19:02:16;9.43;;;5.65;;
66609;SDS011;53468;48.276;14.416;2023-06-26T19:07:19;7.63;;;5.90;;
66609;SDS011;53468;48.276;14.416;2023-06-26T19:12:21;11.00;;;5.68;;
66609;SDS011;53468;48.276;14.416;2023-06-26T19:17:27;7.10;;;4.97;;
66609;SDS011;53468;48.276;14.416;2023-06-26T19:22:29;7.38;;;5.53;;
66609;SDS011;53468;48.276;14.416;2023-06-26T19:27:32;8.90;;;5.45;;
66609;SDS011;53468;48.276;14.416;2023-06-26T19:32:37;9.65;;;6.00;;
66609;SDS011;53468;48.276;14.416;2023-06-26T19:37:41;9.20;;;6.25;;
66609;SDS011;53468;48.276;14.416;2023-06-26T19:42:43;8.10;;;5.72;;
66609;SDS011;53468;48.276;14.416;2023-06-26T19:47:47;8.40;;;5.85;;
66609;SDS011;53468;48.276;14.416;2023-06-26T19:52:51;8.00;;;5.88;;
66609;SDS011;53468;48.276;14.416;2023-06-26T19:57:55;7.25;;;5.70;;
66609;SDS011;53468;48.276;14.416;2023-06-26T20:08:59;9.27;;;6.75;;
66609;SDS011;53468;48.276;14.416;2023-06-26T20:14:06;8.60;;;6.10;;
66609;SDS011;53468;48.276;14.416;2023-06-26T20:24:34;9.85;;;6.10;;
66609;SDS011;53468;48.276;14.416;2023-06-26T20:29:44;7.50;;;6.40;;
66609;SDS011;53468;48.276;14.416;2023-06-26T20:34:50;8.65;;;6.30;;
66609;SDS011;53468;48.276;14.416;2023-06-26T20:39:56;7.97;;;6.65;;
66609;SDS011;53468;48.276;14.416;2023-06-26T20:45:00;7.72;;;5.95;;
66609;SDS011;53468;48.276;14.416;2023-06-26T20:50:09;8.55;;;6.40;;
66609;SDS011;53468;48.276;14.416;2023-06-26T20:55:16;8.10;;;5.88;;
66609;SDS011;53468;48.276;14.416;2023-06-26T21:00:21;9.23;;;6.05;;
66609;SDS011;53468;48.276;14.416;2023-06-26T21:05:27;8.05;;;5.50;;
66609;SDS011;53468;48.276;14.416;2023-06-26T21:10:32;8.50;;;6.32;;
66609;SDS011;53468;48.276;14.416;2023-06-26T21:15:35;8.65;;;6.15;;
66609;SDS011;53468;48.276;14.416;2023-06-26T21:20:39;8.30;;;5.80;;
66609;SDS011;53468;48.276;14.416;2023-06-26T21:25:44;9.68;;;6.53;;
66609;SDS011;53468;48.276;14.416;2023-06-26T21:30:47;10.27;;;6.28;;
66609;SDS011;53468;48.276;14.416;2023-06-26T21:35:51;8.55;;;5.82;;
66609;SDS011;53468;48.276;14.416;2023-06-26T21:40:55;8.27;;;6.28;;
66609;SDS011;53468;48.276;14.416;2023-06-26T21:45:57;11.43;;;6.20;;
66609;SDS011;53468;48.276;14.416;2023-06-26T21:51:03;11.75;;;7.15;;
66609;SDS011;53468;48.276;14.416;2023-06-26T21:56:06;9.60;;;6.82;;
66609;SDS011;53468;48.276;14.416;2023-06-26T22:01:08;9.93;;;6.50;;
66609;SDS011;53468;48.276;14.416;2023-06-26T22:06:13;13.55;;;7.50;;
66609;SDS011;53468;48.276;14.416;2023-06-26T22:11:18;9.27;;;6.68;;
66609;SDS011;53468;48.276;14.416;2023-06-26T22:16:21;10.30;;;6.88;;
66609;SDS011;53468;48.276;14.416;2023-06-26T22:21:28;8.77;;;6.85;;
66609;SDS011;53468;48.276;14.416;2023-06-26T22:26:33;8.93;;;6.38;;
66609;SDS011;53468;48.276;14.416;2023-06-26T22:31:37;11.43;;;6.38;;
66609;SDS011;53468;48.276;14.416;2023-06-26T22:36:41;8.90;;;6.43;;
66609;SDS011;53468;48.276;14.416;2023-06-26T22:41:45;9.43;;;6.53;;
66609;SDS011;53468;48.276;14.416;2023-06-26T22:46:48;7.55;;;5.90;;
66609;SDS011;53468;48.276;14.416;2023-06-26T22:51:54;8.25;;;6.35;;
66609;SDS011;53468;48.276;14.416;2023-06-26T22:56:57;8.93;;;6.47;;
66609;SDS011;53468;48.276;14.416;2023-06-26T23:02:01;9.40;;;6.30;;
66609;SDS011;53468;48.276;14.416;2023-06-26T23:07:06;9.88;;;6.35;;
66609;SDS011;53468;48.276;14.416;2023-06-26T23:12:08;9.65;;;5.75;;
66609;SDS011;53468;48.276;14.416;2023-06-26T23:17:14;9.25;;;6.38;;
66609;SDS011;53468;48.276;14.416;2023-06-26T23:22:19;8.18;;;5.70;;
66609;SDS011;53468;48.276;14.416;2023-06-26T23:27:22;11.52;;;6.90;;
66609;SDS011;53468;48.276;14.416;2023-06-26T23:32:26;7.85;;;5.60;;
66609;SDS011;53468;48.276;14.416;2023-06-26T23:37:35;9.25;;;5.60;;
66609;SDS011;53468;48.276;14.416;2023-06-26T23:42:38;15.57;;;6.20;;
66609;SDS011;53468;48.276;14.416;2023-06-26T23:47:41;15.93;;;7.00;;
66609;SDS011;53468;48.276;14.416;2023-06-26T23:52:47;10.30;;;7.53;;
66609;SDS011;53468;48.276;14.416;2023-06-26T23:57:52;11.05;;;7.05;;
